sensor_id;sensor_type;location;lat;lon;timestamp;P1;durP1;ratioP1;P2;durP2;ratioP2
37267;SDS011;23154;52.542;13.362;2023-12-20T00:00:02;23.42;;;11.02;;
37267;SDS011;23154;52.542;13.362;2023-12-20T00:02:28;23.85;;;10.27;;
37267;SDS011;23154;52.542;13.362;2023-12-20T00:04:54;21.77;;;10.50;;
37267;SDS011;23154;52.542;13.362;2023-12-20T00:07:20;21.35;;;10.40;;
37267;SDS011;23154;52.542;13.362;2023-12-20T00:09:46;21.23;;;10.48;;
37267;SDS011;23154;52.542;13.362;2023-12-20T00:12:12;24.17;;;10.95;;
37267;SDS011;23154;52.542;13.362;2023-12-20T00:14:38;21.13;;;9.35;;
37267;SDS011;23154;52.542;13.362;2023-12-20T00:17:04;21.10;;;10.25;;
37267;SDS011;23154;52.542;13.362;2023-12-20T00:19:30;24.25;;;11.45;;
37267;SDS011;23154;52.542;13.362;2023-12-20T00:21:56;21.38;;;9.35;;
37267;SDS011;23154;52.542;13.362;2023-12-20T00:24:22;21.98;;;10.20;;
37267;SDS011;23154;52.542;13.362;2023-12-20T00:26:48;22.08;;;10.40;;
37267;SDS011;23154;52.542;13.362;2023-12-20T00:29:14;23.65;;;10.85;;
37267;SDS011;23154;52.542;13.362;2023-12-20T00:31:40;21.63;;;10.63;;
37267;SDS011;23154;52.542;13.362;2023-12-20T00:34:06;22.42;;;10.60;;
37267;SDS011;23154;52.542;13.362;2023-12-20T00:36:32;21.73;;;10.68;;
37267;SDS011;23154;52.542;13.362;2023-12-20T00:38:58;22.60;;;9.90;;
37267;SDS011;23154;52.542;13.362;2023-12-20T00:41:24;22.38;;;10.00;;
37267;SDS011;23154;52.542;13.362;2023-12-20T00:43:50;20.70;;;9.25;;
37267;SDS011;23154;52.542;13.362;2023-12-20T00:46:16;22.55;;;9.63;;
37267;SDS011;23154;52.542;13.362;2023-12-20T00:48:42;21.65;;;10.20;;
37267;SDS011;23154;52.542;13.362;2023-12-20T00:51:10;23.00;;;10.50;;
37267;SDS011;23154;52.542;13.362;2023-12-20T00:53:36;22.70;;;10.45;;
37267;SDS011;23154;52.542;13.362;2023-12-20T00:56:02;20.55;;;9.13;;
37267;SDS011;23154;52.542;13.362;2023-12-20T00:58:28;22.60;;;10.32;;
37267;SDS011;23154;52.542;13.362;2023-12-20T01:00:54;22.60;;;10.48;;
37267;SDS011;23154;52.542;13.362;2023-12-20T01:03:20;20.55;;;9.63;;
37267;SDS011;23154;52.542;13.362;2023-12-20T01:05:46;21.90;;;10.50;;
37267;SDS011;23154;52.542;13.362;2023-12-20T01:08:12;25.40;;;10.68;;
37267;SDS011;23154;52.542;13.362;2023-12-20T01:10:38;21.08;;;10.65;;
37267;SDS011;23154;52.542;13.362;2023-12-20T01:13:05;24.33;;;11.27;;
37267;SDS011;23154;52.542;13.362;2023-12-20T01:15:31;21.63;;;10.45;;
37267;SDS011;23154;52.542;13.362;2023-12-20T01:17:57;22.02;;;10.55;;
37267;SDS011;23154;52.542;13.362;2023-12-20T01:20:24;21.83;;;10.60;;
37267;SDS011;23154;52.542;13.362;2023-12-20T01:22:50;21.80;;;9.98;;
37267;SDS011;23154;52.542;13.362;2023-12-20T01:25:16;21.30;;;9.77;;
37267;SDS011;23154;52.542;13.362;2023-12-20T01:27:42;21.52;;;10.40;;
37267;SDS011;23154;52.542;13.362;2023-12-20T01:30:08;22.40;;;10.43;;
37267;SDS011;23154;52.542;13.362;2023-12-20T01:32:35;22.50;;;11.00;;
37267;SDS011;23154;52.542;13.362;2023-12-20T01:35:01;22.42;;;10.82;;
37267;SDS011;23154;52.542;13.362;2023-12-20T01:37:27;22.17;;;10.10;;
37267;SDS011;23154;52.542;13.362;2023-12-20T01:39:54;22.58;;;10.32;;
37267;SDS011;23154;52.542;13.362;2023-12-20T01:42:20;21.60;;;10.00;;
37267;SDS011;23154;52.542;13.362;2023-12-20T01:44:47;23.58;;;10.95;;
37267;SDS011;23154;52.542;13.362;2023-12-20T01:47:13;23.10;;;11.13;;
37267;SDS011;23154;52.542;13.362;2023-12-20T01:49:39;23.58;;;9.88;;
37267;SDS011;23154;52.542;13.362;2023-12-20T01:52:05;24.20;;;9.65;;
37267;SDS011;23154;52.542;13.362;2023-12-20T01:54:32;19.20;;;8.32;;
37267;SDS011;23154;52.542;13.362;2023-12-20T01:56:58;18.42;;;7.35;;
37267;SDS011;23154;52.542;13.362;2023-12-20T01:59:24;17.17;;;7.35;;
37267;SDS011;23154;52.542;13.362;2023-12-20T02:01:50;16.67;;;6.63;;
37267;SDS011;23154;52.542;13.362;2023-12-20T02:04:16;18.77;;;7.45;;
37267;SDS011;23154;52.542;13.362;2023-12-20T02:06:42;17.27;;;6.63;;
37267;SDS011;23154;52.542;13.362;2023-12-20T02:09:08;18.02;;;6.57;;
37267;SDS011;23154;52.542;13.362;2023-12-20T02:11:35;17.10;;;5.40;;
37267;SDS011;23154;52.542;13.362;2023-12-20T02:14:01;12.13;;;3.58;;
37267;SDS011;23154;52.542;13.362;2023-12-20T02:16:27;14.68;;;4.43;;
37267;SDS011;23154;52.542;13.362;2023-12-20T02:18:54;13.25;;;3.20;;
37267;SDS011;23154;52.542;13.362;2023-12-20T02:21:39;14.02;;;3.20;;
37267;SDS011;23154;52.542;13.362;2023-12-20T02:24:05;10.18;;;3.20;;
37267;SDS011;23154;52.542;13.362;2023-12-20T02:26:34;12.38;;;2.88;;
37267;SDS011;23154;52.542;13.362;2023-12-20T02:29:00;10.77;;;3.47;;
37267;SDS011;23154;52.542;13.362;2023-12-20T02:31:26;12.15;;;3.63;;
37267;SDS011;23154;52.542;13.362;2023-12-20T02:33:52;13.88;;;4.13;;
37267;SDS011;23154;52.542;13.362;2023-12-20T02:36:18;14.80;;;4.63;;
37267;SDS011;23154;52.542;13.362;2023-12-20T02:38:44;14.00;;;4.80;;
37267;SDS011;23154;52.542;13.362;2023-12-20T02:41:10;17.35;;;5.40;;
37267;SDS011;23154;52.542;13.362;2023-12-20T02:43:36;12.57;;;4.75;;
37267;SDS011;23154;52.542;13.362;2023-12-20T02:46:02;15.60;;;5.38;;
37267;SDS011;23154;52.542;13.362;2023-12-20T02:48:28;15.93;;;6.00;;
37267;SDS011;23154;52.542;13.362;2023-12-20T02:50:54;18.05;;;7.03;;
37267;SDS011;23154;52.542;13.362;2023-12-20T02:53:20;19.33;;;6.97;;
37267;SDS011;23154;52.542;13.362;2023-12-20T02:55:46;21.05;;;7.63;;
37267;SDS011;23154;52.542;13.362;2023-12-20T02:58:12;18.08;;;7.72;;
37267;SDS011;23154;52.542;13.362;2023-12-20T03:00:38;17.63;;;6.85;;
37267;SDS011;23154;52.542;13.362;2023-12-20T03:03:04;18.48;;;7.55;;
37267;SDS011;23154;52.542;13.362;2023-12-20T03:05:31;17.88;;;7.15;;
37267;SDS011;23154;52.542;13.362;2023-12-20T03:07:57;19.48;;;6.68;;
37267;SDS011;23154;52.542;13.362;2023-12-20T03:10:23;23.67;;;7.05;;
37267;SDS011;23154;52.542;13.362;2023-12-20T03:12:48;16.42;;;5.15;;
37267;SDS011;23154;52.542;13.362;2023-12-20T03:15:15;18.75;;;5.63;;
37267;SDS011;23154;52.542;13.362;2023-12-20T03:17:40;18.60;;;5.78;;
37267;SDS011;23154;52.542;13.362;2023-12-20T03:20:08;17.58;;;5.63;;
37267;SDS011;23154;52.542;13.362;2023-12-20T03:22:34;20.75;;;5.22;;
37267;SDS011;23154;52.542;13.362;2023-12-20T03:25:00;17.75;;;4.68;;
37267;SDS011;23154;52.542;13.362;2023-12-20T03:27:26;20.88;;;4.90;;
37267;SDS011;23154;52.542;13.362;2023-12-20T03:29:52;14.70;;;4.55;;
37267;SDS011;23154;52.542;13.362;2023-12-20T03:32:18;16.95;;;4.28;;
37267;SDS011;23154;52.542;13.362;2023-12-20T03:34:44;16.20;;;4.30;;
37267;SDS011;23154;52.542;13.362;2023-12-20T03:37:10;14.25;;;3.75;;
37267;SDS011;23154;52.542;13.362;2023-12-20T03:39:36;17.02;;;3.75;;
37267;SDS011;23154;52.542;13.362;2023-12-20T03:42:02;17.65;;;3.50;;
37267;SDS011;23154;52.542;13.362;2023-12-20T03:44:28;16.52;;;3.45;;
37267;SDS011;23154;52.542;13.362;2023-12-20T03:46:54;17.55;;;3.50;;
37267;SDS011;23154;52.542;13.362;2023-12-20T03:49:20;18.58;;;3.33;;
37267;SDS011;23154;52.542;13.362;2023-12-20T03:51:46;15.38;;;3.47;;
37267;SDS011;23154;52.542;13.362;2023-12-20T03:54:12;20.20;;;3.45;;
37267;SDS011;23154;52.542;13.362;2023-12-20T03:56:38;14.93;;;3.38;;
37267;SDS011;23154;52.542;13.362;2023-12-20T03:59:04;15.98;;;3.60;;
37267;SDS011;23154;52.542;13.362;2023-12-20T04:01:30;16.67;;;3.30;;
37267;SDS011;23154;52.542;13.362;2023-12-20T04:03:56;15.82;;;3.25;;
37267;SDS011;23154;52.542;13.362;2023-12-20T04:06:22;18.95;;;3.83;;
37267;SDS011;23154;52.542;13.362;2023-12-20T04:08:48;22.80;;;3.30;;
37267;SDS011;23154;52.542;13.362;2023-12-20T04:11:14;14.85;;;2.95;;
37267;SDS011;23154;52.542;13.362;2023-12-20T04:13:40;18.63;;;3.10;;
37267;SDS011;23154;52.542;13.362;2023-12-20T04:16:06;15.18;;;3.13;;
37267;SDS011;23154;52.542;13.362;2023-12-20T04:18:32;15.57;;;2.80;;
37267;SDS011;23154;52.542;13.362;2023-12-20T04:20:58;14.95;;;3.05;;
37267;SDS011;23154;52.542;13.362;2023-12-20T04:23:24;18.90;;;3.28;;
37267;SDS011;23154;52.542;13.362;2023-12-20T04:25:50;17.60;;;3.28;;
37267;SDS011;23154;52.542;13.362;2023-12-20T04:28:16;17.05;;;3.08;;
37267;SDS011;23154;52.542;13.362;2023-12-20T04:30:42;18.52;;;2.67;;
37267;SDS011;23154;52.542;13.362;2023-12-20T04:33:08;20.52;;;2.90;;
37267;SDS011;23154;52.542;13.362;2023-12-20T04:35:34;14.30;;;3.17;;
37267;SDS011;23154;52.542;13.362;2023-12-20T04:38:00;18.45;;;3.20;;
37267;SDS011;23154;52.542;13.362;2023-12-20T04:40:26;15.77;;;3.00;;
37267;SDS011;23154;52.542;13.362;2023-12-20T04:42:52;14.52;;;2.83;;
37267;SDS011;23154;52.542;13.362;2023-12-20T04:45:18;18.02;;;3.55;;
37267;SDS011;23154;52.542;13.362;2023-12-20T04:47:44;23.10;;;3.97;;
37267;SDS011;23154;52.542;13.362;2023-12-20T04:50:12;18.38;;;3.17;;
37267;SDS011;23154;52.542;13.362;2023-12-20T04:52:38;16.83;;;3.08;;
37267;SDS011;23154;52.542;13.362;2023-12-20T04:55:04;18.27;;;3.72;;
37267;SDS011;23154;52.542;13.362;2023-12-20T04:57:30;26.63;;;3.30;;
37267;SDS011;23154;52.542;13.362;2023-12-20T04:59:56;20.17;;;3.33;;
37267;SDS011;23154;52.542;13.362;2023-12-20T05:02:22;18.63;;;3.15;;
37267;SDS011;23154;52.542;13.362;2023-12-20T05:04:48;23.05;;;4.05;;
37267;SDS011;23154;52.542;13.362;2023-12-20T05:07:14;19.13;;;3.65;;
37267;SDS011;23154;52.542;13.362;2023-12-20T05:09:40;19.58;;;3.92;;
37267;SDS011;23154;52.542;13.362;2023-12-20T05:12:06;17.30;;;3.60;;
37267;SDS011;23154;52.542;13.362;2023-12-20T05:14:32;18.13;;;3.30;;
37267;SDS011;23154;52.542;13.362;2023-12-20T05:16:58;19.52;;;3.50;;
37267;SDS011;23154;52.542;13.362;2023-12-20T05:19:24;17.90;;;3.38;;
37267;SDS011;23154;52.542;13.362;2023-12-20T05:21:51;23.83;;;3.63;;
37267;SDS011;23154;52.542;13.362;2023-12-20T05:24:17;14.93;;;3.40;;
37267;SDS011;23154;52.542;13.362;2023-12-20T05:26:43;15.75;;;3.38;;
37267;SDS011;23154;52.542;13.362;2023-12-20T05:29:09;22.33;;;3.17;;
37267;SDS011;23154;52.542;13.362;2023-12-20T05:31:35;18.23;;;4.15;;
37267;SDS011;23154;52.542;13.362;2023-12-20T05:34:01;21.45;;;3.65;;
37267;SDS011;23154;52.542;13.362;2023-12-20T05:36:27;18.90;;;4.13;;
37267;SDS011;23154;52.542;13.362;2023-12-20T05:38:53;25.15;;;3.67;;
37267;SDS011;23154;52.542;13.362;2023-12-20T05:41:19;23.05;;;4.13;;
37267;SDS011;23154;52.542;13.362;2023-12-20T05:43:46;25.63;;;4.35;;
37267;SDS011;23154;52.542;13.362;2023-12-20T05:46:12;26.15;;;4.25;;
37267;SDS011;23154;52.542;13.362;2023-12-20T05:48:38;26.27;;;4.72;;
37267;SDS011;23154;52.542;13.362;2023-12-20T05:51:04;26.13;;;4.78;;
37267;SDS011;23154;52.542;13.362;2023-12-20T05:53:30;27.13;;;4.05;;
37267;SDS011;23154;52.542;13.362;2023-12-20T05:55:56;23.95;;;4.57;;
37267;SDS011;23154;52.542;13.362;2023-12-20T05:58:22;22.20;;;4.65;;
37267;SDS011;23154;52.542;13.362;2023-12-20T06:00:48;21.80;;;3.88;;
37267;SDS011;23154;52.542;13.362;2023-12-20T06:03:14;22.33;;;3.30;;
37267;SDS011;23154;52.542;13.362;2023-12-20T06:05:40;25.17;;;3.35;;
37267;SDS011;23154;52.542;13.362;2023-12-20T06:08:06;17.40;;;3.03;;
37267;SDS011;23154;52.542;13.362;2023-12-20T06:10:32;22.25;;;3.53;;
37267;SDS011;23154;52.542;13.362;2023-12-20T06:12:58;18.15;;;3.15;;
37267;SDS011;23154;52.542;13.362;2023-12-20T06:15:25;16.77;;;3.17;;
37267;SDS011;23154;52.542;13.362;2023-12-20T06:17:51;22.92;;;3.33;;
37267;SDS011;23154;52.542;13.362;2023-12-20T06:20:17;21.95;;;3.25;;
37267;SDS011;23154;52.542;13.362;2023-12-20T06:22:43;23.13;;;3.38;;
37267;SDS011;23154;52.542;13.362;2023-12-20T06:25:09;18.33;;;3.20;;
37267;SDS011;23154;52.542;13.362;2023-12-20T06:27:35;23.98;;;3.97;;
37267;SDS011;23154;52.542;13.362;2023-12-20T06:30:01;16.27;;;3.28;;
37267;SDS011;23154;52.542;13.362;2023-12-20T06:32:27;24.27;;;3.92;;
37267;SDS011;23154;52.542;13.362;2023-12-20T06:34:54;17.02;;;3.03;;
37267;SDS011;23154;52.542;13.362;2023-12-20T06:37:20;22.92;;;4.00;;
37267;SDS011;23154;52.542;13.362;2023-12-20T06:39:46;22.98;;;4.13;;
37267;SDS011;23154;52.542;13.362;2023-12-20T06:42:12;15.65;;;3.05;;
37267;SDS011;23154;52.542;13.362;2023-12-20T06:44:38;22.27;;;3.20;;
37267;SDS011;23154;52.542;13.362;2023-12-20T06:47:05;20.05;;;3.75;;
37267;SDS011;23154;52.542;13.362;2023-12-20T06:49:31;19.88;;;3.47;;
37267;SDS011;23154;52.542;13.362;2023-12-20T06:51:57;21.88;;;3.58;;
37267;SDS011;23154;52.542;13.362;2023-12-20T06:54:23;20.45;;;3.80;;
37267;SDS011;23154;52.542;13.362;2023-12-20T06:56:49;17.83;;;3.38;;
37267;SDS011;23154;52.542;13.362;2023-12-20T06:59:15;17.48;;;3.08;;
37267;SDS011;23154;52.542;13.362;2023-12-20T07:01:41;20.15;;;3.83;;
37267;SDS011;23154;52.542;13.362;2023-12-20T07:04:07;16.92;;;3.00;;
37267;SDS011;23154;52.542;13.362;2023-12-20T07:06:33;23.23;;;4.05;;
37267;SDS011;23154;52.542;13.362;2023-12-20T07:08:59;19.48;;;3.45;;
37267;SDS011;23154;52.542;13.362;2023-12-20T07:11:25;21.92;;;3.80;;
37267;SDS011;23154;52.542;13.362;2023-12-20T07:13:51;21.13;;;3.83;;
37267;SDS011;23154;52.542;13.362;2023-12-20T07:16:17;22.48;;;4.28;;
37267;SDS011;23154;52.542;13.362;2023-12-20T07:18:43;18.20;;;3.47;;
37267;SDS011;23154;52.542;13.362;2023-12-20T07:21:10;21.88;;;4.45;;
37267;SDS011;23154;52.542;13.362;2023-12-20T07:23:36;20.77;;;3.90;;
37267;SDS011;23154;52.542;13.362;2023-12-20T07:26:02;29.05;;;6.93;;
37267;SDS011;23154;52.542;13.362;2023-12-20T07:28:29;21.05;;;3.47;;
37267;SDS011;23154;52.542;13.362;2023-12-20T07:30:55;16.00;;;3.20;;
37267;SDS011;23154;52.542;13.362;2023-12-20T07:33:21;23.30;;;4.53;;
37267;SDS011;23154;52.542;13.362;2023-12-20T07:35:47;23.00;;;3.55;;
37267;SDS011;23154;52.542;13.362;2023-12-20T07:38:13;24.20;;;4.15;;
37267;SDS011;23154;52.542;13.362;2023-12-20T07:40:39;20.23;;;3.80;;
37267;SDS011;23154;52.542;13.362;2023-12-20T07:43:05;26.27;;;4.18;;
37267;SDS011;23154;52.542;13.362;2023-12-20T07:45:31;24.35;;;3.40;;
37267;SDS011;23154;52.542;13.362;2023-12-20T07:47:57;25.50;;;3.70;;
37267;SDS011;23154;52.542;13.362;2023-12-20T07:50:23;23.73;;;3.92;;
37267;SDS011;23154;52.542;13.362;2023-12-20T07:52:49;19.40;;;3.38;;
37267;SDS011;23154;52.542;13.362;2023-12-20T07:55:15;16.90;;;3.22;;
37267;SDS011;23154;52.542;13.362;2023-12-20T07:57:42;19.80;;;3.70;;
37267;SDS011;23154;52.542;13.362;2023-12-20T08:00:08;19.55;;;3.13;;
37267;SDS011;23154;52.542;13.362;2023-12-20T08:02:34;27.48;;;3.35;;
37267;SDS011;23154;52.542;13.362;2023-12-20T08:05:00;18.98;;;3.28;;
37267;SDS011;23154;52.542;13.362;2023-12-20T08:07:26;15.07;;;2.97;;
37267;SDS011;23154;52.542;13.362;2023-12-20T08:09:52;17.40;;;2.78;;
37267;SDS011;23154;52.542;13.362;2023-12-20T08:12:19;24.05;;;3.17;;
37267;SDS011;23154;52.542;13.362;2023-12-20T08:14:45;20.63;;;3.10;;
37267;SDS011;23154;52.542;13.362;2023-12-20T08:17:11;38.13;;;11.90;;
37267;SDS011;23154;52.542;13.362;2023-12-20T08:19:37;26.58;;;5.28;;
37267;SDS011;23154;52.542;13.362;2023-12-20T08:22:04;18.48;;;3.25;;
37267;SDS011;23154;52.542;13.362;2023-12-20T08:24:29;15.98;;;2.97;;
37267;SDS011;23154;52.542;13.362;2023-12-20T08:26:55;21.50;;;3.28;;
37267;SDS011;23154;52.542;13.362;2023-12-20T08:29:21;18.75;;;3.67;;
37267;SDS011;23154;52.542;13.362;2023-12-20T08:31:51;19.00;;;2.95;;
37267;SDS011;23154;52.542;13.362;2023-12-20T08:34:18;18.40;;;3.30;;
37267;SDS011;23154;52.542;13.362;2023-12-20T08:36:44;20.70;;;3.47;;
37267;SDS011;23154;52.542;13.362;2023-12-20T08:39:10;23.80;;;3.35;;
37267;SDS011;23154;52.542;13.362;2023-12-20T08:41:36;19.52;;;2.85;;
37267;SDS011;23154;52.542;13.362;2023-12-20T08:44:02;20.90;;;2.83;;
37267;SDS011;23154;52.542;13.362;2023-12-20T08:46:28;22.90;;;3.85;;
37267;SDS011;23154;52.542;13.362;2023-12-20T08:48:55;19.83;;;3.47;;
37267;SDS011;23154;52.542;13.362;2023-12-20T08:51:21;17.52;;;3.15;;
37267;SDS011;23154;52.542;13.362;2023-12-20T08:53:48;13.45;;;2.58;;
37267;SDS011;23154;52.542;13.362;2023-12-20T08:56:14;13.18;;;2.97;;
37267;SDS011;23154;52.542;13.362;2023-12-20T08:58:41;18.25;;;3.00;;
37267;SDS011;23154;52.542;13.362;2023-12-20T09:01:07;17.27;;;3.10;;
37267;SDS011;23154;52.542;13.362;2023-12-20T09:03:34;15.77;;;3.58;;
37267;SDS011;23154;52.542;13.362;2023-12-20T09:06:00;22.10;;;2.83;;
37267;SDS011;23154;52.542;13.362;2023-12-20T09:08:26;19.63;;;3.38;;
37267;SDS011;23154;52.542;13.362;2023-12-20T09:10:52;16.70;;;2.55;;
37267;SDS011;23154;52.542;13.362;2023-12-20T09:13:18;23.48;;;3.92;;
37267;SDS011;23154;52.542;13.362;2023-12-20T09:15:44;21.98;;;2.53;;
37267;SDS011;23154;52.542;13.362;2023-12-20T09:18:10;15.80;;;3.17;;
37267;SDS011;23154;52.542;13.362;2023-12-20T09:20:36;19.77;;;3.20;;
37267;SDS011;23154;52.542;13.362;2023-12-20T09:23:02;19.50;;;3.05;;
37267;SDS011;23154;52.542;13.362;2023-12-20T09:25:28;21.58;;;2.83;;
37267;SDS011;23154;52.542;13.362;2023-12-20T09:27:54;19.67;;;2.40;;
37267;SDS011;23154;52.542;13.362;2023-12-20T09:30:21;22.05;;;3.80;;
37267;SDS011;23154;52.542;13.362;2023-12-20T09:32:47;18.05;;;2.97;;
37267;SDS011;23154;52.542;13.362;2023-12-20T09:35:13;40.95;;;12.15;;
37267;SDS011;23154;52.542;13.362;2023-12-20T09:37:39;24.15;;;3.78;;
37267;SDS011;23154;52.542;13.362;2023-12-20T09:40:09;22.20;;;3.30;;
37267;SDS011;23154;52.542;13.362;2023-12-20T09:42:57;16.33;;;2.97;;
37267;SDS011;23154;52.542;13.362;2023-12-20T09:45:24;20.17;;;3.65;;
37267;SDS011;23154;52.542;13.362;2023-12-20T09:47:50;22.88;;;3.25;;
37267;SDS011;23154;52.542;13.362;2023-12-20T09:50:19;18.45;;;2.83;;
37267;SDS011;23154;52.542;13.362;2023-12-20T09:52:46;24.63;;;3.20;;
37267;SDS011;23154;52.542;13.362;2023-12-20T09:55:15;18.80;;;3.40;;
37267;SDS011;23154;52.542;13.362;2023-12-20T09:57:42;18.10;;;3.55;;
37267;SDS011;23154;52.542;13.362;2023-12-20T10:00:09;14.32;;;2.78;;
37267;SDS011;23154;52.542;13.362;2023-12-20T10:02:35;22.17;;;3.97;;
37267;SDS011;23154;52.542;13.362;2023-12-20T10:05:06;17.75;;;3.58;;
37267;SDS011;23154;52.542;13.362;2023-12-20T10:07:34;19.80;;;3.25;;
37267;SDS011;23154;52.542;13.362;2023-12-20T10:10:00;20.65;;;3.20;;
37267;SDS011;23154;52.542;13.362;2023-12-20T10:12:27;21.25;;;3.53;;
37267;SDS011;23154;52.542;13.362;2023-12-20T10:14:53;13.23;;;3.08;;
37267;SDS011;23154;52.542;13.362;2023-12-20T10:17:19;17.10;;;3.40;;
37267;SDS011;23154;52.542;13.362;2023-12-20T10:19:47;15.85;;;3.00;;
37267;SDS011;23154;52.542;13.362;2023-12-20T10:22:13;18.02;;;3.10;;
37267;SDS011;23154;52.542;13.362;2023-12-20T10:24:39;16.38;;;2.65;;
37267;SDS011;23154;52.542;13.362;2023-12-20T10:27:07;18.65;;;3.42;;
37267;SDS011;23154;52.542;13.362;2023-12-20T10:29:33;17.77;;;3.40;;
37267;SDS011;23154;52.542;13.362;2023-12-20T10:32:00;22.23;;;4.53;;
37267;SDS011;23154;52.542;13.362;2023-12-20T10:34:29;20.58;;;4.35;;
37267;SDS011;23154;52.542;13.362;2023-12-20T10:36:58;23.15;;;3.50;;
37267;SDS011;23154;52.542;13.362;2023-12-20T10:39:25;19.27;;;3.20;;
37267;SDS011;23154;52.542;13.362;2023-12-20T10:41:51;20.83;;;3.92;;
37267;SDS011;23154;52.542;13.362;2023-12-20T10:44:17;24.45;;;3.90;;
37267;SDS011;23154;52.542;13.362;2023-12-20T10:46:43;18.45;;;3.85;;
37267;SDS011;23154;52.542;13.362;2023-12-20T10:49:14;19.15;;;3.10;;
37267;SDS011;23154;52.542;13.362;2023-12-20T10:51:41;23.42;;;3.75;;
37267;SDS011;23154;52.542;13.362;2023-12-20T10:54:08;22.00;;;3.50;;
37267;SDS011;23154;52.542;13.362;2023-12-20T10:56:34;22.25;;;3.72;;
37267;SDS011;23154;52.542;13.362;2023-12-20T10:59:01;23.83;;;3.35;;
37267;SDS011;23154;52.542;13.362;2023-12-20T11:01:30;24.00;;;3.30;;
37267;SDS011;23154;52.542;13.362;2023-12-20T11:03:56;18.63;;;3.30;;
37267;SDS011;23154;52.542;13.362;2023-12-20T11:09:04;22.33;;;3.50;;
37267;SDS011;23154;52.542;13.362;2023-12-20T11:11:56;17.90;;;3.47;;
37267;SDS011;23154;52.542;13.362;2023-12-20T11:14:22;23.95;;;3.70;;
37267;SDS011;23154;52.542;13.362;2023-12-20T11:16:49;23.27;;;3.45;;
37267;SDS011;23154;52.542;13.362;2023-12-20T11:19:16;16.35;;;3.50;;
37267;SDS011;23154;52.542;13.362;2023-12-20T11:21:42;21.95;;;3.50;;
37267;SDS011;23154;52.542;13.362;2023-12-20T11:24:09;22.65;;;3.40;;
37267;SDS011;23154;52.542;13.362;2023-12-20T11:26:35;26.25;;;4.15;;
37267;SDS011;23154;52.542;13.362;2023-12-20T11:31:46;16.27;;;3.58;;
37267;SDS011;23154;52.542;13.362;2023-12-20T11:34:15;19.17;;;3.65;;
37267;SDS011;23154;52.542;13.362;2023-12-20T11:36:43;18.85;;;3.00;;
37267;SDS011;23154;52.542;13.362;2023-12-20T11:39:09;22.13;;;3.83;;
37267;SDS011;23154;52.542;13.362;2023-12-20T11:41:36;21.48;;;4.10;;
37267;SDS011;23154;52.542;13.362;2023-12-20T11:44:04;11.48;;;3.28;;
37267;SDS011;23154;52.542;13.362;2023-12-20T11:46:30;21.67;;;3.15;;
37267;SDS011;23154;52.542;13.362;2023-12-20T11:48:58;22.23;;;3.38;;
37267;SDS011;23154;52.542;13.362;2023-12-20T11:51:26;25.65;;;3.75;;
37267;SDS011;23154;52.542;13.362;2023-12-20T11:53:52;22.17;;;3.53;;
37267;SDS011;23154;52.542;13.362;2023-12-20T11:56:19;25.50;;;3.53;;
37267;SDS011;23154;52.542;13.362;2023-12-20T11:58:45;21.88;;;3.33;;
37267;SDS011;23154;52.542;13.362;2023-12-20T12:01:11;19.67;;;4.25;;
37267;SDS011;23154;52.542;13.362;2023-12-20T12:03:37;22.40;;;3.33;;
37267;SDS011;23154;52.542;13.362;2023-12-20T12:06:03;21.83;;;3.42;;
37267;SDS011;23154;52.542;13.362;2023-12-20T12:08:30;21.83;;;3.90;;
37267;SDS011;23154;52.542;13.362;2023-12-20T12:10:56;22.85;;;3.53;;
37267;SDS011;23154;52.542;13.362;2023-12-20T12:13:22;19.98;;;2.88;;
37267;SDS011;23154;52.542;13.362;2023-12-20T12:15:52;19.30;;;3.35;;
37267;SDS011;23154;52.542;13.362;2023-12-20T12:18:19;12.23;;;2.92;;
37267;SDS011;23154;52.542;13.362;2023-12-20T12:20:45;23.67;;;3.65;;
37267;SDS011;23154;52.542;13.362;2023-12-20T12:23:11;21.50;;;3.67;;
37267;SDS011;23154;52.542;13.362;2023-12-20T12:25:37;18.30;;;3.22;;
37267;SDS011;23154;52.542;13.362;2023-12-20T12:28:03;17.52;;;3.28;;
37267;SDS011;23154;52.542;13.362;2023-12-20T12:30:29;19.98;;;3.35;;
37267;SDS011;23154;52.542;13.362;2023-12-20T12:32:56;17.20;;;3.10;;
37267;SDS011;23154;52.542;13.362;2023-12-20T12:35:23;21.52;;;3.78;;
37267;SDS011;23154;52.542;13.362;2023-12-20T12:37:49;18.38;;;3.03;;
37267;SDS011;23154;52.542;13.362;2023-12-20T12:40:15;20.40;;;3.22;;
37267;SDS011;23154;52.542;13.362;2023-12-20T12:42:42;16.45;;;3.13;;
37267;SDS011;23154;52.542;13.362;2023-12-20T12:45:09;17.63;;;3.08;;
37267;SDS011;23154;52.542;13.362;2023-12-20T12:47:39;21.92;;;3.05;;
37267;SDS011;23154;52.542;13.362;2023-12-20T12:50:05;22.30;;;3.97;;
37267;SDS011;23154;52.542;13.362;2023-12-20T12:52:32;17.27;;;3.35;;
37267;SDS011;23154;52.542;13.362;2023-12-20T12:54:58;15.93;;;3.00;;
37267;SDS011;23154;52.542;13.362;2023-12-20T12:57:24;15.73;;;3.13;;
37267;SDS011;23154;52.542;13.362;2023-12-20T12:59:50;17.90;;;3.50;;
37267;SDS011;23154;52.542;13.362;2023-12-20T13:02:16;24.83;;;3.80;;
37267;SDS011;23154;52.542;13.362;2023-12-20T13:04:43;18.17;;;4.13;;
37267;SDS011;23154;52.542;13.362;2023-12-20T13:07:09;17.02;;;3.50;;
37267;SDS011;23154;52.542;13.362;2023-12-20T13:09:36;18.88;;;3.15;;
37267;SDS011;23154;52.542;13.362;2023-12-20T13:12:02;18.20;;;4.05;;
37267;SDS011;23154;52.542;13.362;2023-12-20T13:14:30;14.05;;;3.55;;
37267;SDS011;23154;52.542;13.362;2023-12-20T13:16:57;17.33;;;4.10;;
37267;SDS011;23154;52.542;13.362;2023-12-20T13:19:23;16.10;;;3.58;;
37267;SDS011;23154;52.542;13.362;2023-12-20T13:21:49;13.27;;;3.22;;
37267;SDS011;23154;52.542;13.362;2023-12-20T13:24:15;11.02;;;2.70;;
37267;SDS011;23154;52.542;13.362;2023-12-20T13:26:41;7.45;;;2.25;;
37267;SDS011;23154;52.542;13.362;2023-12-20T13:29:07;10.95;;;2.55;;
37267;SDS011;23154;52.542;13.362;2023-12-20T13:31:33;5.47;;;1.80;;
37267;SDS011;23154;52.542;13.362;2023-12-20T13:34:01;10.77;;;1.70;;
37267;SDS011;23154;52.542;13.362;2023-12-20T13:36:27;8.90;;;2.35;;
37267;SDS011;23154;52.542;13.362;2023-12-20T13:38:53;8.18;;;1.75;;
37267;SDS011;23154;52.542;13.362;2023-12-20T13:41:19;9.93;;;2.25;;
37267;SDS011;23154;52.542;13.362;2023-12-20T13:43:45;10.68;;;1.70;;
37267;SDS011;23154;52.542;13.362;2023-12-20T13:46:11;5.20;;;1.33;;
37267;SDS011;23154;52.542;13.362;2023-12-20T13:48:38;6.88;;;1.80;;
37267;SDS011;23154;52.542;13.362;2023-12-20T13:51:05;4.72;;;1.48;;
37267;SDS011;23154;52.542;13.362;2023-12-20T13:53:31;7.97;;;2.03;;
37267;SDS011;23154;52.542;13.362;2023-12-20T13:55:57;7.65;;;1.85;;
37267;SDS011;23154;52.542;13.362;2023-12-20T13:58:25;7.88;;;1.80;;
37267;SDS011;23154;52.542;13.362;2023-12-20T14:00:51;10.60;;;1.75;;
37267;SDS011;23154;52.542;13.362;2023-12-20T14:03:18;9.15;;;1.75;;
37267;SDS011;23154;52.542;13.362;2023-12-20T14:05:45;6.68;;;1.65;;
37267;SDS011;23154;52.542;13.362;2023-12-20T14:08:11;12.38;;;2.38;;
37267;SDS011;23154;52.542;13.362;2023-12-20T14:10:37;10.13;;;2.40;;
37267;SDS011;23154;52.542;13.362;2023-12-20T14:13:03;7.50;;;1.80;;
37267;SDS011;23154;52.542;13.362;2023-12-20T14:15:30;9.13;;;1.85;;
37267;SDS011;23154;52.542;13.362;2023-12-20T14:18:02;9.05;;;1.60;;
37267;SDS011;23154;52.542;13.362;2023-12-20T14:20:28;9.63;;;2.15;;